Time;durP1;ratioP1;P1;durP2;ratioP2;P2;SDS_P1;SDS_P2;PMS_P1;PMS_P2;Temp;Humidity;BMP_temperature;BMP_pressure;BME280_temperature;BME280_humidity;BME280_pressure;Samples;Min_cycle;Max_cycle;Signal;HPM_P1;HPM_P2
2022/04/19 00:01:50;;;;;;;354.90;325.23;;;;;;;17.92;27.64;93378.84;5077890;28;20036;-68
2022/04/19 00:04:19;;;;;;;349.02;319.23;;;;;;;17.92;27.70;93385.00;5076325;28;20426;-69
2022/04/19 00:06:46;;;;;;;354.92;324.38;;;;;;;17.92;27.64;93376.88;5077879;28;20048;-69
2022/04/19 00:09:11;;;;;;;349.75;320.13;;;;;;;17.92;27.82;93370.72;5075441;28;20068;-68
2022/04/19 00:11:37;;;;;;;352.85;322.80;;;;;;;17.90;27.70;93362.34;5078850;28;20384;-68
2022/04/19 00:14:02;;;;;;;366.27;333.98;;;;;;;17.92;27.65;93363.38;5070002;28;20043;-68
2022/04/19 00:16:28;;;;;;;353.48;323.63;;;;;;;17.90;27.68;93351.53;5078003;28;20119;-68
2022/04/19 00:18:54;;;;;;;356.83;327.13;;;;;;;17.91;27.73;93358.41;5073850;28;20437;-69
2022/04/19 00:21:19;;;;;;;336.83;307.77;;;;;;;17.91;27.78;93350.31;5072730;28;20048;-69
2022/04/19 00:23:46;;;;;;;352.52;323.05;;;;;;;17.91;27.83;93353.00;5070769;28;20278;-69
2022/04/19 00:26:12;;;;;;;353.52;322.98;;;;;;;17.90;27.76;93343.41;5077764;28;20044;-69
2022/04/19 00:28:38;;;;;;;355.08;324.50;;;;;;;17.88;27.67;93348.53;5073310;28;20405;-68
2022/04/19 00:31:05;;;;;;;355.17;325.20;;;;;;;17.87;27.64;93342.38;5073178;28;20044;-68
2022/04/19 00:33:32;;;;;;;391.45;360.20;;;;;;;17.88;27.77;93341.16;5075416;28;20040;-68
2022/04/19 00:35:57;;;;;;;350.20;320.30;;;;;;;17.87;27.73;93334.25;5056640;28;20645;-68
2022/04/19 00:38:23;;;;;;;366.60;334.42;;;;;;;17.87;27.87;93336.22;5054152;28;20123;-69
2022/04/19 00:40:49;;;;;;;345.23;315.77;;;;;;;17.87;27.85;93331.56;5072138;28;20044;-68
2022/04/19 00:43:18;;;;;;;353.83;323.50;;;;;;;17.88;27.83;93324.19;5074768;28;20378;-68
2022/04/19 00:45:43;;;;;;;346.88;317.40;;;;;;;17.88;27.75;93318.78;5074504;28;20043;-68
2022/04/19 00:48:10;;;;;;;357.30;326.13;;;;;;;17.88;27.92;93322.22;5076035;28;20070;-68
2022/04/19 00:50:36;;;;;;;342.75;313.50;;;;;;;17.90;27.79;93319.06;5082202;28;20043;-68
2022/04/19 00:53:03;;;;;;;340.52;311.63;;;;;;;17.90;27.65;93314.41;5076144;28;20089;-68
2022/04/19 00:55:29;;;;;;;344.25;314.48;;;;;;;17.89;27.70;93309.44;5075297;28;20036;-68
2022/04/19 00:57:57;;;;;;;352.45;322.85;;;;;;;17.88;27.92;93313.38;5081829;28;20032;-68
2022/04/19 01:00:23;;;;;;;344.85;315.15;;;;;;;17.87;27.79;93309.19;5071746;28;20060;-68
2022/04/19 01:02:48;;;;;;;347.20;317.88;;;;;;;17.86;27.74;93300.31;5078356;28;20108;-68
2022/04/19 01:05:15;;;;;;;348.27;318.98;;;;;;;17.86;27.91;93292.19;5076270;28;20067;-68
2022/04/19 01:07:42;;;;;;;332.48;303.75;;;;;;;17.87;27.86;93287.53;5077463;28;20044;-68
2022/04/19 01:10:08;;;;;;;339.92;311.27;;;;;;;17.86;27.92;93294.16;5080743;28;20058;-68
2022/04/19 01:15:18;;;;;;;353.10;322.77;;;;;;;17.83;28.12;93285.03;5067352;28;20062;-68
2022/04/19 01:17:45;;;;;;;353.02;323.20;;;;;;;17.84;28.08;93272.25;5068375;28;20052;-68
2022/04/19 01:20:13;;;;;;;349.30;318.63;;;;;;;17.83;28.00;93276.91;5073831;28;20101;-69
2022/04/19 01:22:41;;;;;;;341.00;311.75;;;;;;;17.82;27.95;93267.31;5075884;28;20044;-68
2022/04/19 01:25:08;;;;;;;341.85;312.63;;;;;;;17.83;27.99;93270.75;5074274;28;20044;-68
2022/04/19 01:27:34;;;;;;;341.40;312.05;;;;;;;17.84;28.14;93269.53;5078479;28;20544;-68
2022/04/19 01:30:06;;;;;;;357.02;325.33;;;;;;;17.84;28.12;93261.44;5073006;28;20044;-67
2022/04/19 01:32:32;;;;;;;344.30;314.70;;;;;;;17.84;28.01;93258.72;5089182;28;20048;-68
2022/04/19 01:35:14;;;;;;;343.13;314.02;;;;;;;17.82;28.01;93251.06;5075631;28;20817;-68
2022/04/19 01:37:45;;;;;;;346.75;316.67;;;;;;;17.81;27.97;93256.97;5074756;28;20081;-68
2022/04/19 01:40:17;;;;;;;358.30;327.05;;;;;;;17.81;28.05;93251.56;5073226;28;20044;-68
2022/04/19 01:42:50;;;;;;;;;;;;;;;17.79;28.03;93252.03;5080560;28;20136;-68
2022/04/19 01:45:18;;;;;;;334.20;304.50;;;;;;;17.81;27.97;93254.25;5079463;28;19930;-67
2022/04/19 01:47:44;;;;;;;336.48;306.95;;;;;;;17.78;28.26;93250.53;5073487;28;20048;-68
2022/04/19 01:50:12;;;;;;;358.42;327.63;;;;;;;17.77;28.06;93244.38;5073386;28;20497;-68
2022/04/19 01:52:39;;;;;;;373.83;340.77;;;;;;;17.77;28.09;93244.38;5080549;28;20056;-68
2022/04/19 01:55:06;;;;;;;358.13;328.10;;;;;;;17.77;28.08;93238.22;5079055;28;20131;-68
2022/04/19 01:57:32;;;;;;;359.00;327.38;;;;;;;17.76;28.16;93236.72;5078526;28;20043;-68
2022/04/19 01:59:57;;;;;;;353.27;323.08;;;;;;;17.76;27.97;93234.78;5084671;28;20058;-68
2022/04/19 02:02:23;;;;;;;351.15;320.45;;;;;;;17.75;28.16;93243.34;5080409;28;20723;-68
2022/04/19 02:04:50;;;;;;;362.23;330.52;;;;;;;17.73;28.05;93232.25;5077177;28;20055;-68
2022/04/19 02:07:16;;;;;;;358.10;327.50;;;;;;;17.73;28.22;93234.97;5081711;28;20083;-68
2022/04/19 02:09:42;;;;;;;366.90;336.02;;;;;;;17.75;28.13;93240.66;5078360;28;20109;-68
2022/04/19 02:12:08;;;;;;;340.02;310.77;;;;;;;17.74;28.02;93237.19;5081996;28;20078;-67
2022/04/19 02:14:34;;;;;;;352.65;322.63;;;;;;;17.74;28.17;93239.91;5081225;28;20047;-68
2022/04/19 02:17:00;;;;;;;345.80;316.55;;;;;;;17.74;28.01;93239.91;5075838;28;20485;-68
2022/04/19 02:19:25;;;;;;;363.35;333.13;;;;;;;17.74;28.00;93242.59;5073251;28;20040;-68
2022/04/19 02:21:50;;;;;;;362.88;331.33;;;;;;;17.74;28.09;93242.59;5077198;28;20061;-68
2022/04/19 02:24:16;;;;;;;374.52;342.77;;;;;;;17.74;28.22;93241.88;5084273;28;20056;-68
2022/04/19 02:26:41;;;;;;;355.90;325.85;;;;;;;17.75;28.21;93241.41;5081697;28;20510;-68
2022/04/19 02:29:07;;;;;;;365.58;334.95;;;;;;;17.75;28.06;93238.69;5084831;28;20039;-68
2022/04/19 02:31:33;;;;;;;378.98;345.65;;;;;;;17.74;28.05;93242.59;5079565;28;20059;-68
2022/04/19 02:33:58;;;;;;;367.77;335.42;;;;;;;17.75;28.01;93246.06;5076360;28;20047;-68
2022/04/19 02:36:27;;;;;;;373.63;341.55;;;;;;;17.75;28.14;93246.81;5083863;28;20040;-68
2022/04/19 02:38:53;;;;;;;368.65;336.27;;;;;;;17.74;28.15;93244.56;5080454;28;20070;-68
2022/04/19 02:41:18;;;;;;;390.90;357.52;;;;;;;17.75;28.02;93235.25;5084283;28;20043;-68
2022/04/19 02:43:43;;;;;;;407.52;372.13;;;;;;;17.76;28.16;93242.13;5080493;28;20056;-68
2022/04/19 02:46:09;;;;;;;375.77;343.30;;;;;;;17.77;28.03;93238.22;5081066;28;20044;-68
2022/04/19 02:48:35;;;;;;;375.83;342.45;;;;;;;17.78;28.21;93239.72;5073359;28;20135;-68
2022/04/19 02:51:00;;;;;;;344.73;314.73;;;;;;;17.78;28.15;93235.06;5073984;28;20052;-68
2022/04/19 02:53:27;;;;;;;360.38;329.35;;;;;;;17.77;28.10;93228.16;5080365;28;20048;-67
2022/04/19 02:55:52;;;;;;;344.08;314.10;;;;;;;17.78;28.23;93232.34;5084476;28;20041;-68
2022/04/19 02:58:18;;;;;;;338.40;308.90;;;;;;;17.78;28.22;93234.31;5083351;28;20404;-68
2022/04/19 03:00:43;;;;;;;360.60;329.58;;;;;;;17.80;28.00;93236.53;5068440;28;20135;-68
2022/04/19 03:03:09;;;;;;;367.42;335.23;;;;;;;17.78;28.12;93235.06;5071728;28;20507;-68
2022/04/19 03:05:39;;;;;;;342.73;313.02;;;;;;;17.78;28.22;93234.31;5079378;28;20121;-68
2022/04/19 03:08:04;;;;;;;330.38;301.77;;;;;;;17.78;28.25;93231.59;5075098;28;20051;-68
2022/04/19 03:10:30;;;;;;;347.45;317.85;;;;;;;17.78;28.12;93234.31;5078950;28;20475;-68
2022/04/19 03:12:55;;;;;;;346.27;316.73;;;;;;;17.79;28.13;93235.78;5079040;28;20109;-68
2022/04/19 03:15:21;;;;;;;336.98;308.25;;;;;;;17.78;28.13;93232.34;5079014;28;20063;-68
2022/04/19 03:17:47;;;;;;;348.38;318.40;;;;;;;17.78;28.19;93228.91;5078855;28;20052;-68
2022/04/19 03:20:13;;;;;;;354.15;324.17;;;;;;;17.77;28.13;93228.16;5078184;28;20052;-68
2022/04/19 03:28:11;;;;;;;357.50;325.10;;;;;;;17.76;28.17;93210.44;5074479;28;20039;-68
2022/04/19 03:30:37;;;;;;;351.05;320.77;;;;;;;17.76;28.13;93215.09;5070267;28;20097;-68
2022/04/19 03:33:03;;;;;;;354.98;323.45;;;;;;;17.77;28.13;93211.19;5073909;27;20039;-68
2022/04/19 03:35:28;;;;;;;337.75;309.17;;;;;;;17.75;28.15;93208.19;5075931;28;20150;-68
2022/04/19 03:37:54;;;;;;;342.38;313.60;;;;;;;17.75;28.34;93205.50;5074995;28;20052;-68
2022/04/19 03:40:19;;;;;;;339.65;310.63;;;;;;;17.76;28.25;93209.69;5079997;28;20469;-68
2022/04/19 03:42:45;;;;;;;357.92;326.90;;;;;;;17.75;28.21;93200.84;5077066;28;20051;-68
2022/04/19 03:45:11;;;;;;;352.13;321.63;;;;;;;17.75;28.07;93200.09;5073129;28;20060;-68
2022/04/19 03:47:37;;;;;;;343.38;313.75;;;;;;;17.75;28.32;93203.53;5076060;28;20484;-68
2022/04/19 03:50:04;;;;;;;342.02;312.67;;;;;;;17.75;28.17;93203.53;5077634;28;20051;-68
2022/04/19 03:52:30;;;;;;;333.35;303.85;;;;;;;17.77;28.12;93197.66;5073159;28;20035;-68
2022/04/19 03:54:57;;;;;;;334.88;305.77;;;;;;;17.77;28.04;93200.34;5075136;28;20075;-68
2022/04/19 03:57:25;;;;;;;338.85;310.08;;;;;;;17.80;28.19;93207.53;5077712;28;20492;-68
2022/04/19 03:59:51;;;;;;;341.45;310.85;;;;;;;17.81;28.31;93203.63;5071906;28;20405;-69
2022/04/19 04:02:17;;;;;;;327.92;299.42;;;;;;;17.81;28.34;93206.31;5073774;28;20101;-68
2022/04/19 04:04:43;;;;;;;336.65;307.88;;;;;;;17.81;28.25;93200.16;5068491;28;20519;-68
2022/04/19 04:07:09;;;;;;;335.55;306.92;;;;;;;17.82;28.38;93204.34;5081496;28;20040;-68
2022/04/19 04:09:35;;;;;;;330.55;301.92;;;;;;;17.82;28.30;93207.81;5078423;28;20488;-68
2022/04/19 04:12:14;;;;;;;329.08;300.85;;;;;;;17.83;28.31;93201.19;5077954;28;20627;-67
2022/04/19 04:14:41;;;;;;;336.17;307.85;;;;;;;17.84;28.31;93199.97;5078322;28;20091;-68
2022/04/19 04:17:07;;;;;;;344.63;314.92;;;;;;;17.86;28.24;93202.94;5076697;28;20074;-70
2022/04/19 04:19:32;;;;;;;344.27;315.10;;;;;;;17.87;28.29;93212.53;5080049;28;20493;-71
2022/04/19 04:21:58;;;;;;;342.98;314.13;;;;;;;17.89;28.22;93220.19;5075119;28;20555;-73
2022/04/19 04:24:24;;;;;;;351.58;320.98;;;;;;;17.89;28.38;93214.78;5073502;28;22334;-76
2022/04/19 04:26:49;;;;;;;337.80;309.42;;;;;;;17.91;28.42;93215.78;5074362;28;20048;-72
2022/04/19 04:29:14;;;;;;;346.30;317.27;;;;;;;17.93;28.38;93212.63;5072533;28;20052;-71
2022/04/19 04:31:41;;;;;;;336.05;307.73;;;;;;;17.94;28.21;93214.13;5066498;28;20559;-72
2022/04/19 04:34:06;;;;;;;342.88;314.17;;;;;;;17.95;28.27;93213.63;5074054;28;20074;-71
2022/04/19 04:36:32;;;;;;;334.50;306.15;;;;;;;17.97;28.23;93219.31;5083895;28;20485;-68
2022/04/19 04:38:58;;;;;;;352.67;323.33;;;;;;;17.98;28.34;93210.00;5061199;28;20153;-69
2022/04/19 04:41:24;;;;;;;355.42;324.92;;;;;;;18.01;28.38;93219.13;5057950;28;20055;-69
2022/04/19 04:43:49;;;;;;;330.15;302.30;;;;;;;18.03;28.32;93220.13;5075016;28;20044;-69
2022/04/19 04:51:43;;;;;;;361.05;330.52;;;;;;;18.06;28.56;93211.09;5073200;28;20281;-69
2022/04/19 04:54:08;;;;;;;343.25;314.80;;;;;;;18.08;28.55;93208.66;5072700;28;20043;-69
2022/04/19 04:56:34;;;;;;;352.52;322.95;;;;;;;18.12;28.46;93203.03;5081206;28;20154;-69
2022/04/19 04:59:00;;;;;;;347.95;319.33;;;;;;;18.12;28.41;93197.63;5069979;28;20094;-69
2022/04/19 05:01:25;;;;;;;354.98;326.05;;;;;;;18.15;28.57;93204.78;5076746;28;20048;-69
2022/04/19 05:03:51;;;;;;;350.73;321.35;;;;;;;18.15;28.73;93199.38;5072627;28;20052;-69
2022/04/19 05:06:30;;;;;;;355.60;327.23;;;;;;;18.15;28.65;93199.38;5077649;28;20048;-69
2022/04/19 05:08:55;;;;;;;360.52;331.20;;;;;;;18.18;28.64;93205.81;5072548;28;20052;-69
2022/04/19 05:11:21;;;;;;;347.08;318.75;;;;;;;18.16;28.60;93203.56;5077378;28;20113;-69
2022/04/19 05:13:46;;;;;;;359.73;329.88;;;;;;;18.17;28.58;93210.47;5078213;28;20044;-69
2022/04/19 05:16:12;;;;;;;346.70;318.60;;;;;;;18.19;28.92;93207.28;5080026;28;20044;-69
2022/04/19 05:18:38;;;;;;;364.08;333.85;;;;;;;18.20;28.58;93203.38;5082771;28;20055;-69
2022/04/19 05:21:03;;;;;;;369.55;339.33;;;;;;;18.21;28.49;93202.88;5073576;28;20036;-69
2022/04/19 05:23:29;;;;;;;348.52;319.23;;;;;;;18.22;28.37;93200.91;5071604;28;20528;-69
2022/04/19 05:25:54;;;;;;;368.85;339.08;;;;;;;18.23;28.56;93200.44;5085133;28;20540;-69
2022/04/19 05:28:20;;;;;;;351.50;323.25;;;;;;;18.22;28.64;93201.66;5080801;28;20139;-69
2022/04/19 05:30:45;;;;;;;377.80;347.40;;;;;;;18.24;28.57;93198.47;5082714;28;20043;-69
2022/04/19 05:33:11;;;;;;;359.73;330.38;;;;;;;18.26;28.30;93196.78;5082457;28;20048;-69
2022/04/19 05:35:38;;;;;;;359.15;329.90;;;;;;;18.26;28.47;93199.47;5076812;28;20087;-69
2022/04/19 05:38:03;;;;;;;366.08;336.35;;;;;;;18.26;28.35;93194.06;5070485;28;20040;-69
2022/04/19 05:40:29;;;;;;;353.65;324.75;;;;;;;18.27;28.80;93195.56;5075990;28;20047;-69
2022/04/19 05:42:55;;;;;;;366.83;336.70;;;;;;;18.30;28.48;93188.44;5084075;28;20044;-69
2022/04/19 05:45:20;;;;;;;357.85;329.00;;;;;;;18.29;28.41;93193.13;5084046;28;20087;-69
2022/04/19 05:47:46;;;;;;;414.73;382.80;;;;;;;18.30;28.39;93196.56;5078212;28;20089;-69
2022/04/19 05:50:12;;;;;;;356.83;328.13;;;;;;;18.32;28.57;93197.59;5079455;28;20043;-69
2022/04/19 05:52:37;;;;;;;360.52;331.08;;;;;;;18.32;28.57;93200.28;5082875;28;20052;-69
2022/04/19 05:55:10;;;;;;;369.02;339.50;;;;;;;18.33;28.39;93203.75;5078487;28;20481;-69
2022/04/19 05:57:35;;;;;;;367.77;337.85;;;;;;;18.33;28.28;93201.78;5076751;28;20172;-69
2022/04/19 06:00:01;;;;;;;355.33;327.15;;;;;;;18.34;28.38;93200.56;5079360;28;20047;-69
2022/04/19 06:05:10;;;;;;;360.77;331.98;;;;;;;18.36;28.18;93202.81;5080656;28;20063;-69
2022/04/19 06:07:44;;;;;;;352.85;324.55;;;;;;;18.36;28.45;93202.81;5085142;28;20199;-69
2022/04/19 06:10:09;;;;;;;355.90;327.20;;;;;;;18.35;28.43;93207.47;5075896;28;20046;-69
2022/04/19 06:12:35;;;;;;;359.48;329.92;;;;;;;18.36;28.24;93208.22;5081361;28;20561;-69
2022/04/19 06:15:00;;;;;;;358.08;329.83;;;;;;;18.36;28.26;93214.38;5083017;28;20048;-69
2022/04/19 06:17:35;;;;;;;361.27;332.55;;;;;;;18.35;28.50;93204.00;5084317;28;20052;-69
2022/04/19 06:20:02;;;;;;;355.67;327.15;;;;;;;18.35;27.99;93206.72;5077799;28;20049;-69
2022/04/19 06:22:28;;;;;;;355.70;327.00;;;;;;;18.36;28.21;93210.91;5082483;28;20084;-69
2022/04/19 06:24:55;;;;;;;365.33;335.55;;;;;;;18.36;28.14;93210.91;5082247;28;20035;-69
2022/04/19 06:27:21;;;;;;;362.70;333.40;;;;;;;18.35;28.21;93198.59;5083318;28;20416;-69
2022/04/19 06:29:47;;;;;;;351.05;322.75;;;;;;;18.36;28.14;93206.25;5077045;28;20045;-69
2022/04/19 06:32:13;;;;;;;351.65;323.52;;;;;;;18.38;28.27;93203.81;5070137;28;20070;-70
2022/04/19 06:34:39;;;;;;;355.42;326.90;;;;;;;18.38;28.32;93203.81;5075795;28;20059;-69
2022/04/19 06:37:05;;;;;;;360.02;330.13;;;;;;;18.37;28.25;93202.31;5064936;28;20712;-67
2022/04/19 06:39:31;;;;;;;366.00;335.75;;;;;;;18.38;28.31;93206.53;5065212;28;20051;-68
2022/04/19 06:41:56;;;;;;;363.33;333.80;;;;;;;18.38;28.21;93206.53;5077296;28;20079;-69
2022/04/19 06:44:22;;;;;;;367.17;337.48;;;;;;;18.39;28.31;93201.84;5073628;28;20040;-68
2022/04/19 06:46:49;;;;;;;356.70;328.17;;;;;;;18.38;28.23;93214.63;5080955;28;20148;-68
2022/04/19 06:49:16;;;;;;;364.52;335.35;;;;;;;18.39;28.23;93207.25;5074262;28;20127;-68
2022/04/19 06:51:42;;;;;;;367.27;337.70;;;;;;;18.40;28.31;93204.09;5077118;28;20525;-68
2022/04/19 06:54:09;;;;;;;357.67;328.80;;;;;;;18.44;28.35;93204.63;5084093;28;20059;-68
2022/04/19 06:56:35;;;;;;;356.00;327.75;;;;;;;18.43;28.48;93202.38;5072099;28;20338;-69
2022/04/19 06:59:00;;;;;;;357.58;329.10;;;;;;;18.45;28.27;93205.38;5071751;28;21050;-68
2022/04/19 07:01:27;;;;;;;362.55;333.77;;;;;;;18.43;28.29;93197.72;5077155;28;20040;-68
2022/04/19 07:03:53;;;;;;;356.25;327.55;;;;;;;18.40;28.36;93195.22;5080009;28;20102;-68
2022/04/19 07:06:19;;;;;;;364.67;334.95;;;;;;;18.42;28.38;93198.94;5082420;28;20048;-68
2022/04/19 07:08:45;;;;;;;365.60;335.88;;;;;;;18.40;28.63;93197.91;5082054;28;20043;-68
2022/04/19 07:11:15;;;;;;;354.60;325.92;;;;;;;18.39;28.24;93201.84;5084410;28;20055;-68
2022/04/19 07:13:41;;;;;;;358.42;328.90;;;;;;;18.37;28.45;93194.19;5080499;28;20040;-68
2022/04/19 07:16:07;;;;;;;352.70;324.13;;;;;;;18.38;28.27;93197.66;5083080;28;20035;-68
2022/04/19 07:18:33;;;;;;;362.65;332.80;;;;;;;18.37;28.37;93196.91;5082596;28;20112;-68
2022/04/19 07:26:40;;;;;;;352.75;323.42;;;;;;;18.38;28.26;93194.94;5080495;28;20095;-68
2022/04/19 07:29:10;;;;;;;353.23;324.92;;;;;;;18.38;28.26;93195.69;5082995;28;20102;-68
2022/04/19 07:31:41;;;;;;;363.52;333.75;;;;;;;18.36;28.11;93192.72;5076966;28;20060;-69
2022/04/19 07:34:07;;;;;;;364.23;334.73;;;;;;;18.37;28.11;93196.16;5081684;28;20044;-69
2022/04/19 07:36:39;;;;;;;358.55;329.60;;;;;;;18.36;28.20;93192.72;5083119;28;20487;-71
2022/04/19 07:39:11;;;;;;;361.23;332.27;;;;;;;18.34;28.37;93197.84;5073369;28;21618;-69
2022/04/19 07:41:38;;;;;;;361.48;331.95;;;;;;;18.34;28.10;93197.13;5070335;28;20110;-68
2022/04/19 07:44:05;;;;;;;353.10;324.77;;;;;;;18.34;28.45;93189.75;5080316;28;20721;-67
2022/04/19 07:46:31;;;;;;;365.75;335.60;;;;;;;18.36;28.40;93194.69;5069163;28;20101;-67
2022/04/19 07:48:57;;;;;;;352.35;323.85;;;;;;;18.34;28.33;93189.00;5070393;28;20056;-68
2022/04/19 07:51:23;;;;;;;358.08;329.17;;;;;;;18.32;28.15;93186.75;5072757;28;20130;-67
2022/04/19 07:53:49;;;;;;;354.70;325.83;;;;;;;18.30;28.33;93188.44;5076564;28;20036;-68
2022/04/19 07:56:15;;;;;;;354.50;325.95;;;;;;;18.31;27.90;93190.69;5065818;28;20043;-67
2022/04/19 07:58:42;;;;;;;364.60;334.38;;;;;;;18.32;28.30;93189.47;5069069;28;20137;-68
2022/04/19 08:01:10;;;;;;;359.33;330.20;;;;;;;18.34;28.44;93189.75;5073473;28;20125;-68
2022/04/19 08:03:36;;;;;;;363.33;333.67;;;;;;;18.30;28.35;93194.63;5080035;28;20051;-68
2022/04/19 08:06:02;;;;;;;359.00;329.98;;;;;;;18.31;28.21;93192.66;5067089;28;20044;-68
2022/04/19 08:08:27;;;;;;;356.83;327.40;;;;;;;18.32;28.07;93188.72;5073904;28;20054;-69
2022/04/19 08:10:53;;;;;;;351.42;322.60;;;;;;;18.27;28.17;93184.75;5076737;28;20698;-68
2022/04/19 08:13:19;;;;;;;353.65;324.42;;;;;;;18.24;28.09;93188.38;5079707;28;20070;-68
2022/04/19 08:15:44;;;;;;;353.27;324.75;;;;;;;18.16;28.41;93184.63;5081289;28;20040;-69
2022/04/19 08:18:13;;;;;;;384.15;351.50;;;;;;;18.19;28.27;93185.66;5077505;28;20044;-69
2022/04/19 08:20:43;;;;;;;356.25;327.67;;;;;;;18.18;28.15;93187.59;5074000;28;20389;-68
2022/04/19 08:23:09;;;;;;;355.10;326.58;;;;;;;18.10;28.41;93184.56;5075761;28;20134;-69
2022/04/19 08:25:36;;;;;;;368.80;339.20;;;;;;;18.11;28.28;93188.00;5062066;28;20050;-68
2022/04/19 08:28:02;;;;;;;370.00;339.60;;;;;;;18.18;28.35;93182.19;5078647;28;20052;-69
2022/04/19 08:30:28;;;;;;;360.50;330.92;;;;;;;18.25;28.22;93178.31;5077950;28;20471;-69
2022/04/19 08:32:53;;;;;;;358.50;328.98;;;;;;;18.25;28.19;93184.47;5081212;28;20040;-69
2022/04/19 08:35:19;;;;;;;345.77;317.50;;;;;;;18.25;28.50;93186.44;5077308;28;20052;-68
2022/04/19 08:37:45;;;;;;;353.00;324.38;;;;;;;18.24;28.36;93184.94;5071154;28;20045;-68
2022/04/19 08:40:13;;;;;;;351.85;323.05;;;;;;;18.22;28.23;93179.25;5068777;28;20416;-68
2022/04/19 08:42:40;;;;;;;347.50;319.52;;;;;;;18.17;28.08;93174.56;5083453;28;20104;-69
2022/04/19 08:45:08;;;;;;;349.10;320.92;;;;;;;18.23;28.32;93178.03;5081300;28;20052;-68
2022/04/19 08:47:40;;;;;;;354.65;325.98;;;;;;;18.26;28.40;93179.78;5073017;28;20184;-68
2022/04/19 08:50:10;;;;;;;371.98;340.35;;;;;;;18.26;28.06;93175.13;5069819;28;20047;-68
2022/04/19 08:52:36;;;;;;;350.48;321.27;;;;;;;18.28;28.22;93178.09;5076622;28;20055;-68
2022/04/19 08:57:46;;;;;;;346.25;317.77;;;;;;;18.30;28.21;93175.66;5072534;28;20051;-69
2022/04/19 09:00:12;;;;;;;350.00;320.70;;;;;;;18.30;28.41;93169.50;5081102;28;20040;-68
2022/04/19 09:02:38;;;;;;;365.20;334.67;;;;;;;18.30;28.35;93166.81;5075071;28;20055;-68
2022/04/19 09:05:18;;;;;;;348.52;320.15;;;;;;;18.31;28.11;93162.88;5070570;28;20048;-68
2022/04/19 09:07:44;;;;;;;350.27;321.48;;;;;;;18.31;28.24;93166.31;5073647;28;20827;-69
2022/04/19 09:10:14;;;;;;;352.85;323.73;;;;;;;18.31;28.24;93163.63;5079672;28;20044;-69
2022/04/19 09:13:09;;;;;;;357.70;328.75;;;;;;;18.31;28.33;93158.22;5078616;28;20040;-70
2022/04/19 09:15:43;;;;;;;355.40;325.88;;;;;;;18.31;28.26;93160.16;5072532;28;20503;-70
2022/04/19 09:18:29;;;;;;;346.90;318.25;;;;;;;18.33;28.40;93147.66;5078645;28;20106;-69
2022/04/19 09:20:57;;;;;;;346.45;317.88;;;;;;;18.32;28.10;93153.53;5074273;28;20044;-69
2022/04/19 09:23:24;;;;;;;360.48;331.20;;;;;;;18.33;28.50;93158.47;5075604;28;20518;-69
2022/04/19 09:25:57;;;;;;;359.35;330.23;;;;;;;18.33;28.42;93160.44;5082298;28;20032;-69
2022/04/19 09:28:24;;;;;;;356.30;326.75;;;;;;;18.33;28.38;93155.78;5078951;28;20048;-69
2022/04/19 09:30:58;;;;;;;364.20;334.40;;;;;;;18.29;28.28;93149.06;5075108;28;20058;-68
2022/04/19 09:33:25;;;;;;;370.17;339.67;;;;;;;18.27;28.46;93148.81;5065829;28;20051;-69
2022/04/19 09:35:53;;;;;;;358.55;329.10;;;;;;;18.31;28.47;93146.63;5072821;28;20036;-68
2022/04/19 09:38:42;;;;;;;359.45;330.05;;;;;;;18.31;28.32;93143.94;5074740;28;20048;-68
2022/04/19 09:41:10;;;;;;;360.08;330.27;;;;;;;18.31;28.48;93141.97;5076019;28;20040;-69
2022/04/19 09:43:37;;;;;;;365.25;335.23;;;;;;;18.30;28.34;93139.72;5072922;28;20047;-68
2022/04/19 09:46:06;;;;;;;369.00;338.27;;;;;;;18.24;28.35;93139.69;5078758;28;20123;-69
2022/04/19 09:48:34;;;;;;;366.63;336.83;;;;;;;18.24;28.50;93130.81;5069579;28;20040;-69
2022/04/19 09:51:09;;;;;;;357.85;329.13;;;;;;;18.10;28.41;93133.16;5078397;28;20055;-69
2022/04/19 09:53:48;;;;;;;369.67;339.38;;;;;;;18.07;28.61;93133.34;5079167;28;20123;-69
2022/04/19 09:56:19;;;;;;;368.98;340.02;;;;;;;18.13;28.52;93130.72;5082233;28;20044;-69
2022/04/19 09:58:46;;;;;;;392.80;360.27;;;;;;;18.07;28.48;93136.06;5077042;28;20043;-69
2022/04/19 10:09:37;;;;;;;360.27;331.23;;;;;;;18.14;28.21;93138.34;5074557;28;20476;-69
2022/04/19 10:12:06;;;;;;;378.63;347.63;;;;;;;18.21;28.39;93135.22;5081011;28;20044;-69
2022/04/19 10:14:34;;;;;;;365.08;335.77;;;;;;;18.22;28.04;93125.13;5080032;28;20724;-69
2022/04/19 10:17:01;;;;;;;366.95;337.75;;;;;;;18.14;28.27;93118.69;5080993;28;20040;-69
2022/04/19 10:19:28;;;;;;;358.08;329.25;;;;;;;18.16;28.34;93122.41;5073461;28;20162;-69
2022/04/19 10:21:55;;;;;;;359.27;330.10;;;;;;;18.17;28.34;93123.13;5080610;28;20063;-69
2022/04/19 10:24:21;;;;;;;369.08;339.08;;;;;;;18.14;28.43;93118.69;5079862;28;20551;-69
2022/04/19 10:26:51;;;;;;;364.65;334.95;;;;;;;18.14;28.33;93108.59;5084077;28;20044;-68
2022/04/19 10:29:29;;;;;;;360.58;330.80;;;;;;;18.14;28.49;93107.84;5081963;28;20062;-69
2022/04/19 10:32:01;;;;;;;366.08;336.20;;;;;;;18.13;28.24;93117.94;5082085;28;20052;-69
2022/04/19 10:34:29;;;;;;;357.88;328.90;;;;;;;18.07;28.23;93112.47;5078104;28;20118;-69
2022/04/19 10:36:57;;;;;;;359.08;329.73;;;;;;;18.03;28.45;93106.50;5075879;28;20058;-69
2022/04/19 10:39:32;;;;;;;364.25;334.35;;;;;;;18.02;28.44;93099.59;5082160;28;20073;-68
2022/04/19 10:42:05;;;;;;;363.10;333.70;;;;;;;17.97;28.47;93099.56;5079253;28;20051;-69
2022/04/19 10:44:43;;;;;;;364.63;335.80;;;;;;;17.98;28.50;93098.31;5083400;28;20048;-69
2022/04/19 10:47:15;;;;;;;373.10;342.25;;;;;;;17.96;28.50;93093.41;5083228;28;20071;-69
2022/04/19 10:50:07;;;;;;;357.48;328.60;;;;;;;17.98;28.31;93093.66;5067186;28;20058;-69
2022/04/19 10:52:38;;;;;;;362.08;331.75;;;;;;;18.00;28.19;93093.19;5069497;28;20597;-70
2022/04/19 10:55:18;;;;;;;363.43;334.33;;;;;;;18.00;28.35;93098.59;5084635;28;20043;-69
2022/04/19 11:00:42;;;;;;;372.40;342.60;;;;;;;18.05;28.19;93087.84;5076503;28;20047;-69
2022/04/19 11:03:17;;;;;;;366.73;337.17;;;;;;;18.07;28.19;93084.66;5079020;28;20159;-68
2022/04/19 11:05:53;;;;;;;363.90;334.60;;;;;;;18.09;28.21;93085.66;5085494;28;20056;-69
2022/04/19 11:08:24;;;;;;;370.75;340.77;;;;;;;18.04;28.33;93077.50;5080828;28;20465;-69
2022/04/19 11:11:06;;;;;;;366.88;337.42;;;;;;;18.06;28.23;93078.50;5072626;28;20044;-69
2022/04/19 11:13:35;;;;;;;372.02;342.88;;;;;;;18.07;28.31;93082.69;5071840;28;20097;-69
2022/04/19 11:16:13;;;;;;;393.45;361.60;;;;;;;18.15;28.39;93066.78;5076145;28;20995;-70
2022/04/19 11:18:39;;;;;;;385.08;353.48;;;;;;;18.19;28.17;93061.91;5076327;28;20032;-69
2022/04/19 11:21:08;;;;;;;378.42;348.75;;;;;;;18.19;28.19;93069.28;5083069;28;20048;-70
2022/04/19 11:23:46;;;;;;;384.23;353.35;;;;;;;18.24;28.25;93058.47;5068671;28;20039;-70
2022/04/19 11:26:33;;;;;;;375.23;345.25;;;;;;;18.15;28.14;93057.94;5082316;28;20934;-69
2022/04/19 11:29:11;;;;;;;374.60;345.08;;;;;;;18.21;28.18;93054.03;5063410;28;20128;-70
2022/04/19 11:31:45;;;;;;;369.00;339.75;;;;;;;18.24;28.17;93055.78;5081790;28;20048;-70
2022/04/19 11:34:15;;;;;;;397.85;365.42;;;;;;;18.25;28.09;93043.72;5074733;28;20642;-70
2022/04/19 11:36:42;;;;;;;389.33;359.35;;;;;;;18.22;27.99;93041.97;5079152;28;20040;-69
2022/04/19 11:46:43;;;;;;;393.17;361.27;;;;;;;18.27;28.17;93040.53;5078485;28;20119;-70
2022/04/19 11:47:46;;;;;;;367.33;337.83;;;;;;;18.24;28.13;93044.94;5074308;28;20416;-69